sensor_id;sensor_type;location;lat;lon;timestamp;P1;durP1;ratioP1;P2;durP2;ratioP2
64873;SDS011;51367;45.204;38.576;2023-10-19T00:00:41;1.05;;;1.02;;
64873;SDS011;51367;45.204;38.576;2023-10-19T00:03:11;1.15;;;1.15;;
64873;SDS011;51367;45.204;38.576;2023-10-19T00:05:38;14.73;;;2.22;;
64873;SDS011;51367;45.204;38.576;2023-10-19T00:08:05;3.17;;;2.85;;
64873;SDS011;51367;45.204;38.576;2023-10-19T00:10:38;2.47;;;2.28;;
64873;SDS011;51367;45.204;38.576;2023-10-19T00:13:08;2.22;;;2.13;;
64873;SDS011;51367;45.204;38.576;2023-10-19T00:15:40;2.53;;;2.33;;
64873;SDS011;51367;45.204;38.576;2023-10-19T00:18:14;1.65;;;1.55;;
64873;SDS011;51367;45.204;38.576;2023-10-19T00:20:44;1.17;;;1.13;;
64873;SDS011;51367;45.204;38.576;2023-10-19T00:23:14;0.85;;;0.85;;
64873;SDS011;51367;45.204;38.576;2023-10-19T00:28:18;3.53;;;2.05;;
64873;SDS011;51367;45.204;38.576;2023-10-19T00:30:45;1.05;;;1.05;;
64873;SDS011;51367;45.204;38.576;2023-10-19T00:33:13;1.20;;;1.10;;
64873;SDS011;51367;45.204;38.576;2023-10-19T00:35:47;1.00;;;1.00;;
64873;SDS011;51367;45.204;38.576;2023-10-19T00:38:25;1.60;;;1.50;;
64873;SDS011;51367;45.204;38.576;2023-10-19T00:41:00;1.08;;;1.05;;
64873;SDS011;51367;45.204;38.576;2023-10-19T00:43:45;0.73;;;0.73;;
64873;SDS011;51367;45.204;38.576;2023-10-19T00:46:15;1.70;;;1.60;;
64873;SDS011;51367;45.204;38.576;2023-10-19T00:48:47;1.05;;;1.02;;
64873;SDS011;51367;45.204;38.576;2023-10-19T00:51:16;1.30;;;1.20;;
64873;SDS011;51367;45.204;38.576;2023-10-19T00:54:02;1.48;;;1.40;;
64873;SDS011;51367;45.204;38.576;2023-10-19T00:56:36;1.25;;;1.25;;
64873;SDS011;51367;45.204;38.576;2023-10-19T00:59:06;0.88;;;0.88;;
64873;SDS011;51367;45.204;38.576;2023-10-19T01:01:42;1.17;;;1.15;;
64873;SDS011;51367;45.204;38.576;2023-10-19T01:04:19;2.22;;;1.52;;
64873;SDS011;51367;45.204;38.576;2023-10-19T01:06:48;1.33;;;1.23;;
64873;SDS011;51367;45.204;38.576;2023-10-19T01:09:34;1.35;;;1.35;;
64873;SDS011;51367;45.204;38.576;2023-10-19T01:12:02;1.45;;;1.35;;
64873;SDS011;51367;45.204;38.576;2023-10-19T01:15:11;2.08;;;1.98;;
64873;SDS011;51367;45.204;38.576;2023-10-19T01:17:45;1.77;;;1.67;;
64873;SDS011;51367;45.204;38.576;2023-10-19T01:20:23;1.08;;;1.02;;
64873;SDS011;51367;45.204;38.576;2023-10-19T01:22:56;1.42;;;1.33;;
64873;SDS011;51367;45.204;38.576;2023-10-19T01:25:32;0.88;;;0.88;;
64873;SDS011;51367;45.204;38.576;2023-10-19T01:28:24;1.95;;;1.85;;
64873;SDS011;51367;45.204;38.576;2023-10-19T01:31:08;3.80;;;2.55;;
64873;SDS011;51367;45.204;38.576;2023-10-19T01:33:39;1.65;;;1.48;;
64873;SDS011;51367;45.204;38.576;2023-10-19T01:36:10;1.45;;;1.35;;
64873;SDS011;51367;45.204;38.576;2023-10-19T01:38:40;2.03;;;0.68;;
64873;SDS011;51367;45.204;38.576;2023-10-19T01:41:08;0.50;;;0.50;;
64873;SDS011;51367;45.204;38.576;2023-10-19T01:43:44;4.65;;;2.88;;
64873;SDS011;51367;45.204;38.576;2023-10-19T01:46:16;2.35;;;2.15;;
64873;SDS011;51367;45.204;38.576;2023-10-19T01:48:57;1.05;;;1.02;;
64873;SDS011;51367;45.204;38.576;2023-10-19T01:51:26;6.32;;;2.70;;
64873;SDS011;51367;45.204;38.576;2023-10-19T01:53:54;2.13;;;2.03;;
64873;SDS011;51367;45.204;38.576;2023-10-19T01:56:21;3.42;;;2.97;;
64873;SDS011;51367;45.204;38.576;2023-10-19T01:58:48;2.05;;;1.83;;
64873;SDS011;51367;45.204;38.576;2023-10-19T02:01:16;1.52;;;1.45;;
64873;SDS011;51367;45.204;38.576;2023-10-19T02:03:51;2.65;;;1.80;;
64873;SDS011;51367;45.204;38.576;2023-10-19T02:09:15;1.10;;;1.10;;
64873;SDS011;51367;45.204;38.576;2023-10-19T02:11:57;0.70;;;0.70;;
64873;SDS011;51367;45.204;38.576;2023-10-19T02:14:27;1.58;;;0.98;;
64873;SDS011;51367;45.204;38.576;2023-10-19T02:16:57;1.73;;;1.63;;
64873;SDS011;51367;45.204;38.576;2023-10-19T02:19:25;1.00;;;1.00;;
64873;SDS011;51367;45.204;38.576;2023-10-19T02:21:54;1.45;;;1.45;;
64873;SDS011;51367;45.204;38.576;2023-10-19T02:24:38;1.15;;;1.15;;
64873;SDS011;51367;45.204;38.576;2023-10-19T02:27:07;3.10;;;2.90;;
64873;SDS011;51367;45.204;38.576;2023-10-19T02:29:34;1.80;;;1.70;;
64873;SDS011;51367;45.204;38.576;2023-10-19T02:32:01;5.50;;;4.43;;
64873;SDS011;51367;45.204;38.576;2023-10-19T02:34:29;5.60;;;3.90;;
64873;SDS011;51367;45.204;38.576;2023-10-19T02:36:57;4.85;;;3.15;;
64873;SDS011;51367;45.204;38.576;2023-10-19T02:39:23;3.47;;;3.22;;
64873;SDS011;51367;45.204;38.576;2023-10-19T02:41:56;3.33;;;2.97;;
64873;SDS011;51367;45.204;38.576;2023-10-19T02:44:22;2.00;;;1.90;;
64873;SDS011;51367;45.204;38.576;2023-10-19T02:46:49;1.13;;;1.10;;
64873;SDS011;51367;45.204;38.576;2023-10-19T02:49:18;2.03;;;1.90;;
64873;SDS011;51367;45.204;38.576;2023-10-19T02:51:47;2.28;;;2.15;;
64873;SDS011;51367;45.204;38.576;2023-10-19T02:54:15;1.92;;;1.73;;
64873;SDS011;51367;45.204;38.576;2023-10-19T02:56:46;2.05;;;1.95;;
64873;SDS011;51367;45.204;38.576;2023-10-19T02:59:15;1.25;;;1.25;;
64873;SDS011;51367;45.204;38.576;2023-10-19T03:01:42;2.58;;;2.42;;
64873;SDS011;51367;45.204;38.576;2023-10-19T03:04:11;2.20;;;2.05;;
64873;SDS011;51367;45.204;38.576;2023-10-19T03:06:38;1.23;;;1.23;;
64873;SDS011;51367;45.204;38.576;2023-10-19T03:09:06;1.33;;;1.23;;
64873;SDS011;51367;45.204;38.576;2023-10-19T03:11:40;0.93;;;0.93;;
64873;SDS011;51367;45.204;38.576;2023-10-19T03:14:07;1.15;;;1.15;;
64873;SDS011;51367;45.204;38.576;2023-10-19T03:16:35;1.88;;;1.58;;
64873;SDS011;51367;45.204;38.576;2023-10-19T03:19:01;2.90;;;2.13;;
64873;SDS011;51367;45.204;38.576;2023-10-19T03:21:29;0.88;;;0.88;;
64873;SDS011;51367;45.204;38.576;2023-10-19T03:23:59;1.02;;;1.02;;
64873;SDS011;51367;45.204;38.576;2023-10-19T03:26:31;1.63;;;1.58;;
64873;SDS011;51367;45.204;38.576;2023-10-19T03:29:02;1.15;;;1.15;;
64873;SDS011;51367;45.204;38.576;2023-10-19T03:31:33;1.45;;;1.40;;
64873;SDS011;51367;45.204;38.576;2023-10-19T03:34:12;17.70;;;4.82;;
64873;SDS011;51367;45.204;38.576;2023-10-19T03:36:38;2.90;;;2.53;;
64873;SDS011;51367;45.204;38.576;2023-10-19T03:39:05;1.55;;;1.48;;
64873;SDS011;51367;45.204;38.576;2023-10-19T03:41:43;3.22;;;2.13;;
64873;SDS011;51367;45.204;38.576;2023-10-19T03:44:10;1.70;;;1.40;;
64873;SDS011;51367;45.204;38.576;2023-10-19T03:46:50;10.52;;;2.58;;
64873;SDS011;51367;45.204;38.576;2023-10-19T03:49:23;2.35;;;1.77;;
64873;SDS011;51367;45.204;38.576;2023-10-19T03:52:07;4.93;;;2.38;;
64873;SDS011;51367;45.204;38.576;2023-10-19T03:54:33;2.10;;;1.67;;
64873;SDS011;51367;45.204;38.576;2023-10-19T03:57:04;2.50;;;2.28;;
64873;SDS011;51367;45.204;38.576;2023-10-19T03:59:31;5.63;;;2.20;;
64873;SDS011;51367;45.204;38.576;2023-10-19T04:02:00;1.60;;;1.50;;
64873;SDS011;51367;45.204;38.576;2023-10-19T04:04:28;2.42;;;2.22;;
64873;SDS011;51367;45.204;38.576;2023-10-19T04:06:55;2.53;;;2.13;;
64873;SDS011;51367;45.204;38.576;2023-10-19T04:09:24;4.20;;;2.92;;
64873;SDS011;51367;45.204;38.576;2023-10-19T04:11:57;1.45;;;1.45;;
64873;SDS011;51367;45.204;38.576;2023-10-19T04:14:23;1.02;;;1.02;;
64873;SDS011;51367;45.204;38.576;2023-10-19T04:16:49;2.45;;;2.25;;
64873;SDS011;51367;45.204;38.576;2023-10-19T04:19:15;1.55;;;1.50;;
64873;SDS011;51367;45.204;38.576;2023-10-19T04:21:41;1.70;;;1.60;;
64873;SDS011;51367;45.204;38.576;2023-10-19T04:24:12;2.20;;;2.00;;
64873;SDS011;51367;45.204;38.576;2023-10-19T04:26:39;2.13;;;1.90;;
64873;SDS011;51367;45.204;38.576;2023-10-19T04:29:06;1.48;;;1.38;;
64873;SDS011;51367;45.204;38.576;2023-10-19T04:31:43;3.70;;;2.90;;
64873;SDS011;51367;45.204;38.576;2023-10-19T04:34:20;1.75;;;1.65;;
64873;SDS011;51367;45.204;38.576;2023-10-19T04:36:47;1.17;;;1.17;;
64873;SDS011;51367;45.204;38.576;2023-10-19T04:39:13;2.10;;;2.00;;
64873;SDS011;51367;45.204;38.576;2023-10-19T04:41:40;6.07;;;1.45;;
64873;SDS011;51367;45.204;38.576;2023-10-19T04:44:06;1.50;;;1.38;;
64873;SDS011;51367;45.204;38.576;2023-10-19T04:46:36;1.77;;;1.70;;
64873;SDS011;51367;45.204;38.576;2023-10-19T04:49:02;2.03;;;1.92;;
64873;SDS011;51367;45.204;38.576;2023-10-19T04:51:29;2.78;;;2.58;;
64873;SDS011;51367;45.204;38.576;2023-10-19T04:53:55;2.08;;;1.98;;
64873;SDS011;51367;45.204;38.576;2023-10-19T04:56:21;1.77;;;1.70;;
64873;SDS011;51367;45.204;38.576;2023-10-19T04:58:48;4.10;;;3.15;;
64873;SDS011;51367;45.204;38.576;2023-10-19T05:01:14;1.98;;;1.83;;
64873;SDS011;51367;45.204;38.576;2023-10-19T05:03:40;1.13;;;1.13;;
64873;SDS011;51367;45.204;38.576;2023-10-19T05:06:07;2.60;;;2.40;;
64873;SDS011;51367;45.204;38.576;2023-10-19T05:08:34;1.75;;;1.65;;
64873;SDS011;51367;45.204;38.576;2023-10-19T05:11:02;2.00;;;1.90;;
64873;SDS011;51367;45.204;38.576;2023-10-19T05:13:29;2.15;;;2.05;;
64873;SDS011;51367;45.204;38.576;2023-10-19T05:15:56;6.28;;;3.13;;
64873;SDS011;51367;45.204;38.576;2023-10-19T05:18:24;3.03;;;2.80;;
64873;SDS011;51367;45.204;38.576;2023-10-19T05:20:54;6.63;;;2.55;;
64873;SDS011;51367;45.204;38.576;2023-10-19T05:23:23;4.82;;;3.53;;
64873;SDS011;51367;45.204;38.576;2023-10-19T05:25:52;2.15;;;2.00;;
64873;SDS011;51367;45.204;38.576;2023-10-19T05:28:19;2.72;;;2.53;;
64873;SDS011;51367;45.204;38.576;2023-10-19T05:30:47;5.95;;;2.22;;
64873;SDS011;51367;45.204;38.576;2023-10-19T05:33:14;4.90;;;3.08;;
64873;SDS011;51367;45.204;38.576;2023-10-19T05:35:40;5.43;;;2.55;;
64873;SDS011;51367;45.204;38.576;2023-10-19T05:38:09;2.90;;;2.70;;
64873;SDS011;51367;45.204;38.576;2023-10-19T05:40:35;3.00;;;2.72;;
64873;SDS011;51367;45.204;38.576;2023-10-19T05:43:01;3.35;;;3.05;;
64873;SDS011;51367;45.204;38.576;2023-10-19T05:45:28;3.25;;;2.97;;
64873;SDS011;51367;45.204;38.576;2023-10-19T05:47:57;5.15;;;3.47;;
64873;SDS011;51367;45.204;38.576;2023-10-19T05:50:23;4.18;;;3.78;;
64873;SDS011;51367;45.204;38.576;2023-10-19T05:52:50;2.90;;;2.60;;
64873;SDS011;51367;45.204;38.576;2023-10-19T05:55:17;3.53;;;3.20;;
64873;SDS011;51367;45.204;38.576;2023-10-19T05:57:46;3.70;;;3.40;;
64873;SDS011;51367;45.204;38.576;2023-10-19T06:00:12;2.78;;;2.47;;
64873;SDS011;51367;45.204;38.576;2023-10-19T06:02:42;6.65;;;3.58;;
64873;SDS011;51367;45.204;38.576;2023-10-19T06:05:14;6.40;;;3.83;;
64873;SDS011;51367;45.204;38.576;2023-10-19T06:07:42;3.83;;;3.53;;
64873;SDS011;51367;45.204;38.576;2023-10-19T06:10:10;15.95;;;2.97;;
64873;SDS011;51367;45.204;38.576;2023-10-19T06:12:41;3.53;;;2.63;;
64873;SDS011;51367;45.204;38.576;2023-10-19T06:15:09;3.05;;;2.75;;
64873;SDS011;51367;45.204;38.576;2023-10-19T06:17:39;3.90;;;3.60;;
64873;SDS011;51367;45.204;38.576;2023-10-19T06:20:06;3.22;;;2.92;;
64873;SDS011;51367;45.204;38.576;2023-10-19T06:22:52;4.90;;;3.13;;
64873;SDS011;51367;45.204;38.576;2023-10-19T06:25:21;3.35;;;3.05;;
64873;SDS011;51367;45.204;38.576;2023-10-19T06:27:49;4.18;;;3.78;;
64873;SDS011;51367;45.204;38.576;2023-10-19T06:30:15;3.30;;;2.60;;
64873;SDS011;51367;45.204;38.576;2023-10-19T06:32:49;3.47;;;3.15;;
64873;SDS011;51367;45.204;38.576;2023-10-19T06:35:17;4.60;;;3.35;;
64873;SDS011;51367;45.204;38.576;2023-10-19T06:37:44;3.58;;;2.90;;
64873;SDS011;51367;45.204;38.576;2023-10-19T06:40:10;5.35;;;3.38;;
64873;SDS011;51367;45.204;38.576;2023-10-19T06:42:38;2.50;;;2.35;;
64873;SDS011;51367;45.204;38.576;2023-10-19T06:45:05;3.47;;;2.75;;
64873;SDS011;51367;45.204;38.576;2023-10-19T06:47:32;4.35;;;2.95;;
64873;SDS011;51367;45.204;38.576;2023-10-19T06:50:03;7.43;;;2.97;;
64873;SDS011;51367;45.204;38.576;2023-10-19T06:52:32;2.67;;;2.50;;
64873;SDS011;51367;45.204;38.576;2023-10-19T06:55:02;3.03;;;2.72;;
64873;SDS011;51367;45.204;38.576;2023-10-19T06:57:30;3.42;;;3.13;;
64873;SDS011;51367;45.204;38.576;2023-10-19T06:59:58;3.30;;;2.90;;
64873;SDS011;51367;45.204;38.576;2023-10-19T07:02:25;8.57;;;3.70;;
64873;SDS011;51367;45.204;38.576;2023-10-19T07:04:52;3.85;;;2.55;;
64873;SDS011;51367;45.204;38.576;2023-10-19T07:07:17;6.07;;;2.97;;
64873;SDS011;51367;45.204;38.576;2023-10-19T07:09:44;3.13;;;2.92;;
64873;SDS011;51367;45.204;38.576;2023-10-19T07:12:09;3.42;;;2.35;;
64873;SDS011;51367;45.204;38.576;2023-10-19T07:14:35;3.47;;;2.67;;
64873;SDS011;51367;45.204;38.576;2023-10-19T07:17:01;4.15;;;3.08;;
64873;SDS011;51367;45.204;38.576;2023-10-19T07:19:27;3.20;;;2.88;;
64873;SDS011;51367;45.204;38.576;2023-10-19T07:21:54;4.93;;;4.03;;
64873;SDS011;51367;45.204;38.576;2023-10-19T07:24:24;10.05;;;2.92;;
64873;SDS011;51367;45.204;38.576;2023-10-19T07:26:50;4.88;;;3.53;;
64873;SDS011;51367;45.204;38.576;2023-10-19T07:29:27;2.38;;;2.17;;
64873;SDS011;51367;45.204;38.576;2023-10-19T07:31:53;2.70;;;2.50;;
64873;SDS011;51367;45.204;38.576;2023-10-19T07:34:20;2.42;;;2.22;;
64873;SDS011;51367;45.204;38.576;2023-10-19T07:36:50;3.05;;;2.75;;
64873;SDS011;51367;45.204;38.576;2023-10-19T07:39:19;5.65;;;2.15;;
64873;SDS011;51367;45.204;38.576;2023-10-19T07:41:45;3.08;;;2.28;;
64873;SDS011;51367;45.204;38.576;2023-10-19T07:44:12;1.90;;;1.80;;
64873;SDS011;51367;45.204;38.576;2023-10-19T07:46:37;2.75;;;2.10;;
64873;SDS011;51367;45.204;38.576;2023-10-19T07:49:03;3.17;;;2.63;;
64873;SDS011;51367;45.204;38.576;2023-10-19T07:51:31;2.15;;;2.03;;
64873;SDS011;51367;45.204;38.576;2023-10-19T07:53:57;2.00;;;1.88;;
64873;SDS011;51367;45.204;38.576;2023-10-19T07:56:23;1.85;;;1.75;;
64873;SDS011;51367;45.204;38.576;2023-10-19T07:58:50;1.55;;;1.45;;
64873;SDS011;51367;45.204;38.576;2023-10-19T08:01:16;3.58;;;2.60;;
64873;SDS011;51367;45.204;38.576;2023-10-19T08:03:41;1.95;;;1.85;;
64873;SDS011;51367;45.204;38.576;2023-10-19T08:06:07;1.98;;;1.80;;
64873;SDS011;51367;45.204;38.576;2023-10-19T08:08:34;2.20;;;2.00;;
64873;SDS011;51367;45.204;38.576;2023-10-19T08:11:00;4.03;;;3.40;;
64873;SDS011;51367;45.204;38.576;2023-10-19T08:13:27;2.78;;;2.53;;
64873;SDS011;51367;45.204;38.576;2023-10-19T08:15:53;2.70;;;1.52;;
64873;SDS011;51367;45.204;38.576;2023-10-19T08:18:20;2.92;;;1.85;;
64873;SDS011;51367;45.204;38.576;2023-10-19T08:20:46;1.65;;;1.55;;
64873;SDS011;51367;45.204;38.576;2023-10-19T08:23:14;3.45;;;2.50;;
64873;SDS011;51367;45.204;38.576;2023-10-19T08:25:42;2.38;;;1.77;;
64873;SDS011;51367;45.204;38.576;2023-10-19T08:28:09;2.58;;;2.38;;
64873;SDS011;51367;45.204;38.576;2023-10-19T08:30:36;2.03;;;1.35;;
64873;SDS011;51367;45.204;38.576;2023-10-19T08:33:02;3.13;;;1.83;;
64873;SDS011;51367;45.204;38.576;2023-10-19T08:35:29;7.72;;;1.88;;
64873;SDS011;51367;45.204;38.576;2023-10-19T08:37:56;2.50;;;1.95;;
64873;SDS011;51367;45.204;38.576;2023-10-19T08:40:26;2.58;;;2.13;;
64873;SDS011;51367;45.204;38.576;2023-10-19T08:42:53;1.60;;;1.50;;
64873;SDS011;51367;45.204;38.576;2023-10-19T08:45:19;3.47;;;1.77;;
64873;SDS011;51367;45.204;38.576;2023-10-19T08:47:56;1.73;;;1.63;;
64873;SDS011;51367;45.204;38.576;2023-10-19T08:50:29;1.80;;;1.70;;
64873;SDS011;51367;45.204;38.576;2023-10-19T08:53:03;1.50;;;1.40;;
64873;SDS011;51367;45.204;38.576;2023-10-19T08:55:31;1.83;;;1.50;;
64873;SDS011;51367;45.204;38.576;2023-10-19T08:58:00;1.85;;;1.65;;
64873;SDS011;51367;45.204;38.576;2023-10-19T09:00:26;6.13;;;2.10;;
64873;SDS011;51367;45.204;38.576;2023-10-19T09:02:53;1.60;;;1.50;;
64873;SDS011;51367;45.204;38.576;2023-10-19T09:05:22;3.97;;;2.42;;
64873;SDS011;51367;45.204;38.576;2023-10-19T09:07:48;1.67;;;1.50;;
64873;SDS011;51367;45.204;38.576;2023-10-19T09:10:24;1.77;;;1.65;;
64873;SDS011;51367;45.204;38.576;2023-10-19T09:13:04;3.95;;;1.40;;
64873;SDS011;51367;45.204;38.576;2023-10-19T09:15:35;1.98;;;1.55;;
64873;SDS011;51367;45.204;38.576;2023-10-19T09:18:14;1.80;;;1.50;;
64873;SDS011;51367;45.204;38.576;2023-10-19T09:20:42;2.13;;;1.83;;
64873;SDS011;51367;45.204;38.576;2023-10-19T09:23:21;1.45;;;1.35;;
64873;SDS011;51367;45.204;38.576;2023-10-19T09:25:50;2.30;;;2.20;;
64873;SDS011;51367;45.204;38.576;2023-10-19T09:28:23;1.77;;;1.67;;
64873;SDS011;51367;45.204;38.576;2023-10-19T09:30:50;1.77;;;1.60;;
64873;SDS011;51367;45.204;38.576;2023-10-19T09:33:17;1.88;;;1.70;;
64873;SDS011;51367;45.204;38.576;2023-10-19T09:35:47;1.60;;;1.50;;
64873;SDS011;51367;45.204;38.576;2023-10-19T09:38:19;1.73;;;1.63;;
64873;SDS011;51367;45.204;38.576;2023-10-19T09:40:53;1.98;;;1.80;;
64873;SDS011;51367;45.204;38.576;2023-10-19T09:43:42;1.75;;;1.40;;
64873;SDS011;51367;45.204;38.576;2023-10-19T09:46:08;4.60;;;1.48;;
64873;SDS011;51367;45.204;38.576;2023-10-19T09:48:40;1.65;;;1.40;;
64873;SDS011;51367;45.204;38.576;2023-10-19T09:51:07;1.50;;;1.40;;
64873;SDS011;51367;45.204;38.576;2023-10-19T09:53:34;1.30;;;1.30;;
64873;SDS011;51367;45.204;38.576;2023-10-19T09:56:03;1.77;;;1.67;;
64873;SDS011;51367;45.204;38.576;2023-10-19T09:58:40;3.22;;;2.03;;
64873;SDS011;51367;45.204;38.576;2023-10-19T10:01:10;4.53;;;1.63;;
64873;SDS011;51367;45.204;38.576;2023-10-19T10:03:46;2.28;;;1.85;;
64873;SDS011;51367;45.204;38.576;2023-10-19T10:06:28;1.75;;;1.65;;
64873;SDS011;51367;45.204;38.576;2023-10-19T10:09:13;3.50;;;1.92;;
64873;SDS011;51367;45.204;38.576;2023-10-19T10:11:48;2.58;;;1.88;;
64873;SDS011;51367;45.204;38.576;2023-10-19T10:14:33;2.00;;;1.90;;
64873;SDS011;51367;45.204;38.576;2023-10-19T10:17:03;2.28;;;2.08;;
64873;SDS011;51367;45.204;38.576;2023-10-19T10:19:35;2.10;;;1.98;;
64873;SDS011;51367;45.204;38.576;2023-10-19T10:22:07;2.13;;;1.85;;
64873;SDS011;51367;45.204;38.576;2023-10-19T10:24:46;1.85;;;1.58;;
64873;SDS011;51367;45.204;38.576;2023-10-19T10:27:16;2.72;;;2.20;;
64873;SDS011;51367;45.204;38.576;2023-10-19T10:30:18;1.90;;;1.80;;
64873;SDS011;51367;45.204;38.576;2023-10-19T10:38:07;4.30;;;2.83;;
64873;SDS011;51367;45.204;38.576;2023-10-19T10:40:47;1.55;;;1.45;;
64873;SDS011;51367;45.204;38.576;2023-10-19T10:43:15;5.22;;;3.25;;
64873;SDS011;51367;45.204;38.576;2023-10-19T10:45:42;4.60;;;2.10;;
64873;SDS011;51367;45.204;38.576;2023-10-19T10:48:13;3.15;;;2.85;;
64873;SDS011;51367;45.204;38.576;2023-10-19T10:50:39;3.03;;;2.67;;
64873;SDS011;51367;45.204;38.576;2023-10-19T10:53:15;4.15;;;2.25;;
64873;SDS011;51367;45.204;38.576;2023-10-19T10:55:41;5.18;;;2.60;;
64873;SDS011;51367;45.204;38.576;2023-10-19T10:58:08;2.50;;;2.30;;
64873;SDS011;51367;45.204;38.576;2023-10-19T11:00:34;2.80;;;2.30;;
64873;SDS011;51367;45.204;38.576;2023-10-19T11:03:07;3.25;;;2.85;;
64873;SDS011;51367;45.204;38.576;2023-10-19T11:05:37;3.53;;;2.78;;
64873;SDS011;51367;45.204;38.576;2023-10-19T11:08:05;5.80;;;2.45;;
64873;SDS011;51367;45.204;38.576;2023-10-19T11:10:33;2.70;;;2.50;;
64873;SDS011;51367;45.204;38.576;2023-10-19T11:13:00;2.72;;;2.13;;
64873;SDS011;51367;45.204;38.576;2023-10-19T11:15:31;4.68;;;3.20;;
64873;SDS011;51367;45.204;38.576;2023-10-19T11:17:58;4.53;;;2.45;;
64873;SDS011;51367;45.204;38.576;2023-10-19T11:20:25;4.00;;;3.10;;
64873;SDS011;51367;45.204;38.576;2023-10-19T11:22:53;2.78;;;2.55;;
64873;SDS011;51367;45.204;38.576;2023-10-19T11:25:27;2.30;;;2.10;;
64873;SDS011;51367;45.204;38.576;2023-10-19T11:27:55;2.90;;;2.45;;
64873;SDS011;51367;45.204;38.576;2023-10-19T11:30:28;2.55;;;2.35;;
64873;SDS011;51367;45.204;38.576;2023-10-19T11:32:58;2.88;;;2.58;;
64873;SDS011;51367;45.204;38.576;2023-10-19T11:35:29;2.30;;;2.10;;
64873;SDS011;51367;45.204;38.576;2023-10-19T11:37:57;2.72;;;2.53;;
64873;SDS011;51367;45.204;38.576;2023-10-19T11:40:29;3.20;;;2.30;;
64873;SDS011;51367;45.204;38.576;2023-10-19T11:42:56;13.77;;;4.22;;
64873;SDS011;51367;45.204;38.576;2023-10-19T11:45:33;3.00;;;2.70;;
64873;SDS011;51367;45.204;38.576;2023-10-19T11:48:07;3.80;;;2.95;;
64873;SDS011;51367;45.204;38.576;2023-10-19T11:50:37;3.65;;;2.90;;
64873;SDS011;51367;45.204;38.576;2023-10-19T11:53:12;3.33;;;2.58;;
64873;SDS011;51367;45.204;38.576;2023-10-19T11:55:41;3.72;;;2.60;;
64873;SDS011;51367;45.204;38.576;2023-10-19T11:58:17;2.63;;;2.42;;
64873;SDS011;51367;45.204;38.576;2023-10-19T12:00:43;2.22;;;2.05;;
64873;SDS011;51367;45.204;38.576;2023-10-19T12:03:09;3.30;;;3.00;;
64873;SDS011;51367;45.204;38.576;2023-10-19T12:05:39;3.10;;;2.80;;
64873;SDS011;51367;45.204;38.576;2023-10-19T12:08:05;4.20;;;2.55;;
64873;SDS011;51367;45.204;38.576;2023-10-19T12:10:32;6.13;;;3.15;;
64873;SDS011;51367;45.204;38.576;2023-10-19T12:13:01;2.85;;;2.65;;
64873;SDS011;51367;45.204;38.576;2023-10-19T12:15:34;5.25;;;3.38;;
64873;SDS011;51367;45.204;38.576;2023-10-19T12:18:00;10.27;;;6.10;;
64873;SDS011;51367;45.204;38.576;2023-10-19T12:20:31;3.97;;;2.78;;
64873;SDS011;51367;45.204;38.576;2023-10-19T12:22:57;6.47;;;2.58;;
64873;SDS011;51367;45.204;38.576;2023-10-19T12:25:24;3.05;;;2.72;;
64873;SDS011;51367;45.204;38.576;2023-10-19T12:27:57;5.18;;;2.30;;
64873;SDS011;51367;45.204;38.576;2023-10-19T12:30:25;2.78;;;2.47;;
64873;SDS011;51367;45.204;38.576;2023-10-19T12:33:01;3.10;;;2.17;;
64873;SDS011;51367;45.204;38.576;2023-10-19T12:35:30;3.97;;;2.47;;
64873;SDS011;51367;45.204;38.576;2023-10-19T12:38:16;4.68;;;3.03;;
64873;SDS011;51367;45.204;38.576;2023-10-19T12:40:43;2.70;;;1.90;;
64873;SDS011;51367;45.204;38.576;2023-10-19T12:43:11;2.50;;;2.20;;
64873;SDS011;51367;45.204;38.576;2023-10-19T12:45:39;2.20;;;2.00;;
64873;SDS011;51367;45.204;38.576;2023-10-19T12:48:06;2.78;;;2.58;;
64873;SDS011;51367;45.204;38.576;2023-10-19T12:50:35;2.78;;;2.10;;
64873;SDS011;51367;45.204;38.576;2023-10-19T12:53:02;2.05;;;1.85;;
64873;SDS011;51367;45.204;38.576;2023-10-19T12:55:29;2.35;;;2.13;;
64873;SDS011;51367;45.204;38.576;2023-10-19T12:57:56;2.25;;;2.00;;
64873;SDS011;51367;45.204;38.576;2023-10-19T13:00:23;2.40;;;2.20;;
64873;SDS011;51367;45.204;38.576;2023-10-19T13:02:49;1.90;;;1.67;;
64873;SDS011;51367;45.204;38.576;2023-10-19T13:05:16;2.72;;;2.22;;
64873;SDS011;51367;45.204;38.576;2023-10-19T13:07:44;7.63;;;4.93;;
64873;SDS011;51367;45.204;38.576;2023-10-19T13:10:10;7.05;;;2.10;;
64873;SDS011;51367;45.204;38.576;2023-10-19T13:12:39;2.83;;;2.58;;
64873;SDS011;51367;45.204;38.576;2023-10-19T13:15:06;3.63;;;3.22;;
64873;SDS011;51367;45.204;38.576;2023-10-19T13:17:39;3.85;;;2.42;;
64873;SDS011;51367;45.204;38.576;2023-10-19T13:20:05;1.80;;;1.70;;
64873;SDS011;51367;45.204;38.576;2023-10-19T13:22:41;1.83;;;1.55;;
64873;SDS011;51367;45.204;38.576;2023-10-19T13:25:07;6.03;;;3.35;;
64873;SDS011;51367;45.204;38.576;2023-10-19T13:27:45;16.77;;;8.48;;
64873;SDS011;51367;45.204;38.576;2023-10-19T13:30:11;9.25;;;3.15;;
64873;SDS011;51367;45.204;38.576;2023-10-19T13:32:37;5.32;;;3.65;;
64873;SDS011;51367;45.204;38.576;2023-10-19T13:35:04;3.17;;;2.60;;
64873;SDS011;51367;45.204;38.576;2023-10-19T13:37:30;8.30;;;4.68;;
64873;SDS011;51367;45.204;38.576;2023-10-19T13:39:57;11.77;;;10.00;;
64873;SDS011;51367;45.204;38.576;2023-10-19T13:42:24;12.38;;;8.07;;
64873;SDS011;51367;45.204;38.576;2023-10-19T13:44:50;10.70;;;9.07;;
64873;SDS011;51367;45.204;38.576;2023-10-19T13:47:16;14.98;;;4.85;;
64873;SDS011;51367;45.204;38.576;2023-10-19T13:49:42;3.75;;;2.50;;
64873;SDS011;51367;45.204;38.576;2023-10-19T13:52:08;13.82;;;2.65;;
64873;SDS011;51367;45.204;38.576;2023-10-19T13:54:37;2.83;;;2.63;;
64873;SDS011;51367;45.204;38.576;2023-10-19T13:57:03;3.67;;;3.20;;
64873;SDS011;51367;45.204;38.576;2023-10-19T13:59:29;5.10;;;3.33;;
64873;SDS011;51367;45.204;38.576;2023-10-19T14:01:55;4.03;;;2.97;;
64873;SDS011;51367;45.204;38.576;2023-10-19T14:04:21;3.28;;;2.78;;
64873;SDS011;51367;45.204;38.576;2023-10-19T14:06:48;10.07;;;5.03;;
64873;SDS011;51367;45.204;38.576;2023-10-19T14:09:16;11.68;;;7.95;;
64873;SDS011;51367;45.204;38.576;2023-10-19T14:11:44;7.20;;;4.13;;
64873;SDS011;51367;45.204;38.576;2023-10-19T14:14:10;4.30;;;3.47;;
64873;SDS011;51367;45.204;38.576;2023-10-19T14:16:36;9.55;;;3.80;;
64873;SDS011;51367;45.204;38.576;2023-10-19T14:19:02;3.65;;;3.35;;
64873;SDS011;51367;45.204;38.576;2023-10-19T14:21:29;7.15;;;3.70;;
64873;SDS011;51367;45.204;38.576;2023-10-19T14:23:55;4.05;;;3.10;;
64873;SDS011;51367;45.204;38.576;2023-10-19T14:26:22;3.47;;;3.25;;
64873;SDS011;51367;45.204;38.576;2023-10-19T14:28:48;7.50;;;4.63;;
64873;SDS011;51367;45.204;38.576;2023-10-19T14:31:14;8.52;;;4.50;;
64873;SDS011;51367;45.204;38.576;2023-10-19T14:33:42;13.35;;;6.40;;
64873;SDS011;51367;45.204;38.576;2023-10-19T14:36:08;4.88;;;3.78;;
64873;SDS011;51367;45.204;38.576;2023-10-19T14:38:34;4.50;;;3.92;;
64873;SDS011;51367;45.204;38.576;2023-10-19T14:41:01;7.80;;;4.65;;
64873;SDS011;51367;45.204;38.576;2023-10-19T14:43:27;10.07;;;5.70;;
64873;SDS011;51367;45.204;38.576;2023-10-19T14:45:55;9.57;;;5.88;;
64873;SDS011;51367;45.204;38.576;2023-10-19T14:48:22;19.17;;;8.38;;
64873;SDS011;51367;45.204;38.576;2023-10-19T14:50:49;15.60;;;6.95;;
64873;SDS011;51367;45.204;38.576;2023-10-19T14:53:17;8.65;;;7.47;;
64873;SDS011;51367;45.204;38.576;2023-10-19T14:55:43;9.40;;;7.13;;
64873;SDS011;51367;45.204;38.576;2023-10-19T14:58:12;10.55;;;7.72;;